createdAt,value
2024-02-26T00:00:10.344Z,103.07
2024-02-26T00:00:42.401Z,103.90
2024-02-26T00:01:14.525Z,79.33
2024-02-26T00:01:46.399Z,65.93
2024-02-26T00:02:19.061Z,86.73
2024-02-26T00:02:50.977Z,73.33
2024-02-26T00:03:22.947Z,54.67
2024-02-26T00:03:56.273Z,54.93
2024-02-26T00:04:28.204Z,54.50
2024-02-26T00:05:00.115Z,59.10
2024-02-26T00:05:32.873Z,58.50
2024-02-26T00:06:05.066Z,59.47
2024-02-26T00:06:37.937Z,45.70
2024-02-26T00:07:10.392Z,44.53
2024-02-26T00:07:42.493Z,44.73
2024-02-26T00:08:14.302Z,53.30
2024-02-26T00:08:46.504Z,69.00
2024-02-26T00:09:18.364Z,53.03
2024-02-26T00:09:50.204Z,58.00
2024-02-26T00:10:22.116Z,52.70
2024-02-26T00:10:53.943Z,49.07
2024-02-26T00:11:25.782Z,52.57
2024-02-26T00:11:57.703Z,61.60
2024-02-26T00:12:29.577Z,63.73
2024-02-26T00:13:01.463Z,65.90
2024-02-26T00:13:33.369Z,59.47
2024-02-26T00:14:05.501Z,59.03
2024-02-26T00:14:37.392Z,50.50
2024-02-26T00:15:10.175Z,50.30
2024-02-26T00:15:42.096Z,48.40
2024-02-26T00:16:13.973Z,49.00
2024-02-26T00:16:46.525Z,49.63
2024-02-26T00:17:18.372Z,44.80
2024-02-26T00:17:50.308Z,43.20
2024-02-26T00:18:22.461Z,43.67
2024-02-26T00:18:54.524Z,43.43
2024-02-26T00:19:26.553Z,51.20
2024-02-26T00:19:58.493Z,47.73
2024-02-26T00:20:30.362Z,43.10
2024-02-26T00:21:03.133Z,41.93
2024-02-26T00:21:35.018Z,40.90
2024-02-26T00:22:06.828Z,39.40
2024-02-26T00:22:38.732Z,44.27
2024-02-26T00:23:10.560Z,44.20
2024-02-26T00:23:42.423Z,41.37
2024-02-26T00:24:14.395Z,40.73
2024-02-26T00:24:46.290Z,41.47
2024-02-26T00:25:18.224Z,42.27
2024-02-26T00:25:50.066Z,42.83
2024-02-26T00:26:21.931Z,43.87
2024-02-26T00:26:55.877Z,42.90
2024-02-26T00:27:27.973Z,43.67
2024-02-26T00:27:59.818Z,41.50
2024-02-26T00:28:32.557Z,47.40
2024-02-26T00:29:04.713Z,45.50
2024-02-26T00:29:36.601Z,44.17
2024-02-26T00:30:08.916Z,42.87
2024-02-26T00:30:40.878Z,43.40
2024-02-26T00:31:12.823Z,44.80
2024-02-26T00:31:44.742Z,42.83
2024-02-26T00:32:16.665Z,42.20
2024-02-26T00:32:48.694Z,42.13
2024-02-26T00:33:20.854Z,41.83
2024-02-26T00:33:52.869Z,39.80
2024-02-26T00:34:25.599Z,40.77
2024-02-26T00:34:57.569Z,41.97
2024-02-26T00:35:29.651Z,39.43
2024-02-26T00:36:01.559Z,40.30
2024-02-26T00:36:33.408Z,41.90
2024-02-26T00:37:05.393Z,47.40
2024-02-26T00:37:37.259Z,52.10
2024-02-26T00:38:09.199Z,46.07
2024-02-26T00:38:41.654Z,41.80
2024-02-26T00:39:13.587Z,41.20
2024-02-26T00:39:46.254Z,42.60
2024-02-26T00:40:18.216Z,41.50
2024-02-26T00:40:50.090Z,40.67
2024-02-26T00:41:22.023Z,40.67
2024-02-26T00:41:53.902Z,39.10
2024-02-26T00:42:25.850Z,41.57
2024-02-26T00:42:57.813Z,41.50
2024-02-26T00:43:29.652Z,41.13
2024-02-26T00:44:01.604Z,52.07
2024-02-26T00:44:33.554Z,49.20
2024-02-26T00:45:05.845Z,44.53
2024-02-26T00:45:37.782Z,43.90
2024-02-26T00:46:09.640Z,48.03
2024-02-26T00:46:41.493Z,42.77
2024-02-26T00:47:13.434Z,40.13
2024-02-26T00:47:46.674Z,42.10
2024-02-26T00:48:19.011Z,39.70
2024-02-26T00:48:51.114Z,39.20
2024-02-26T00:49:23.114Z,42.60
2024-02-26T00:49:55.107Z,42.70
2024-02-26T00:50:27.056Z,41.37
2024-02-26T00:50:58.973Z,40.43
2024-02-26T00:51:30.936Z,39.93
2024-02-26T00:52:02.765Z,40.63
2024-02-26T00:52:34.696Z,43.27
2024-02-26T00:53:06.573Z,42.57
2024-02-26T00:53:38.483Z,42.60
2024-02-26T00:54:10.337Z,64.27
2024-02-26T00:54:42.201Z,55.60
2024-02-26T00:55:14.128Z,54.80
2024-02-26T00:55:46.012Z,70.27
2024-02-26T00:56:17.853Z,55.97
2024-02-26T00:56:49.775Z,48.33
2024-02-26T00:57:21.973Z,43.23
2024-02-26T00:57:54.276Z,50.77
2024-02-26T00:58:27.080Z,66.87
2024-02-26T00:58:59.675Z,62.07
2024-02-26T00:59:31.548Z,55.47
2024-02-26T01:00:03.573Z,57.03
2024-02-26T01:00:35.456Z,47.00
2024-02-26T01:01:07.458Z,46.27
2024-02-26T01:01:39.368Z,44.97
2024-02-26T01:02:11.223Z,45.50
2024-02-26T01:02:43.245Z,46.73
2024-02-26T01:03:15.290Z,65.60
2024-02-26T01:03:47.511Z,64.47
2024-02-26T01:04:19.516Z,51.90
2024-02-26T01:04:51.414Z,45.73
2024-02-26T01:05:23.347Z,44.53
2024-02-26T01:05:58.832Z,43.93
2024-02-26T01:06:31.325Z,45.63
2024-02-26T01:07:04.327Z,51.63
2024-02-26T01:07:37.442Z,47.77
2024-02-26T01:08:09.821Z,48.90
2024-02-26T01:08:41.784Z,43.53
2024-02-26T01:09:13.803Z,43.07
2024-02-26T01:09:45.727Z,43.43
2024-02-26T01:10:17.589Z,47.17
2024-02-26T01:10:49.452Z,48.50
2024-02-26T01:11:21.359Z,48.30
2024-02-26T01:11:53.327Z,43.13
2024-02-26T01:12:25.282Z,40.83
2024-02-26T01:12:57.157Z,44.07
2024-02-26T01:13:28.982Z,47.17
2024-02-26T01:14:00.879Z,42.10
2024-02-26T01:14:32.816Z,44.77
2024-02-26T01:15:05.291Z,46.17
2024-02-26T01:15:37.541Z,45.97
2024-02-26T01:16:09.470Z,46.80
2024-02-26T01:16:41.361Z,46.47
2024-02-26T01:17:13.193Z,47.17
2024-02-26T01:17:45.080Z,42.23
2024-02-26T01:18:17.087Z,41.53
2024-02-26T01:18:49.186Z,45.07
2024-02-26T01:19:22.091Z,46.37
2024-02-26T01:19:55.044Z,44.57
2024-02-26T01:20:26.967Z,52.33
2024-02-26T01:20:58.872Z,60.63
2024-02-26T01:21:31.218Z,65.03
2024-02-26T01:22:03.757Z,74.20
2024-02-26T01:22:35.743Z,86.67
2024-02-26T01:23:07.610Z,82.97
2024-02-26T01:23:39.485Z,77.83
2024-02-26T01:24:11.875Z,56.73
2024-02-26T01:24:43.813Z,51.20
2024-02-26T01:25:16.935Z,55.67
2024-02-26T01:25:49.588Z,52.03
2024-02-26T01:26:22.972Z,53.37
2024-02-26T01:26:54.859Z,60.60
2024-02-26T01:27:28.429Z,59.10
2024-02-26T01:28:00.358Z,63.60
2024-02-26T01:28:32.189Z,65.17
2024-02-26T01:29:04.038Z,68.33
2024-02-26T01:29:36.059Z,61.63
2024-02-26T01:30:08.463Z,54.43
2024-02-26T01:30:40.408Z,57.50
2024-02-26T01:31:12.332Z,48.13
2024-02-26T01:31:44.165Z,54.17
2024-02-26T01:32:16.017Z,55.20
2024-02-26T01:32:48.194Z,64.57
2024-02-26T01:33:20.252Z,61.87
2024-02-26T01:33:52.247Z,55.83
2024-02-26T01:34:24.250Z,71.70
2024-02-26T01:34:56.205Z,71.33
2024-02-26T01:35:28.053Z,55.33
2024-02-26T01:35:59.943Z,43.67
2024-02-26T01:36:31.869Z,44.13
2024-02-26T01:37:03.933Z,43.13
2024-02-26T01:37:35.841Z,40.63
2024-02-26T01:38:07.683Z,40.97
2024-02-26T01:38:39.497Z,39.53
2024-02-26T01:39:13.719Z,41.43
2024-02-26T01:39:45.645Z,39.70
2024-02-26T01:40:20.793Z,36.90
2024-02-26T01:40:52.760Z,38.83
2024-02-26T01:41:24.587Z,40.77
2024-02-26T01:41:56.516Z,39.20
2024-02-26T01:42:28.415Z,39.53
2024-02-26T01:43:00.814Z,38.87
2024-02-26T01:43:33.096Z,42.67
2024-02-26T01:44:05.025Z,47.77
2024-02-26T01:44:36.903Z,52.97
2024-02-26T01:45:17.251Z,46.67
2024-02-26T01:45:49.381Z,38.10
2024-02-26T01:46:22.235Z,40.40
2024-02-26T01:46:54.430Z,43.20
2024-02-26T01:47:28.219Z,54.63
2024-02-26T01:48:00.320Z,41.03
2024-02-26T01:48:32.559Z,40.93
2024-02-26T01:49:05.029Z,46.33
2024-02-26T01:49:37.823Z,39.37
2024-02-26T01:50:10.084Z,37.23
2024-02-26T01:50:42.528Z,36.40
2024-02-26T01:51:15.966Z,36.07
2024-02-26T01:51:47.807Z,38.33
2024-02-26T01:52:19.942Z,49.13
2024-02-26T01:52:52.353Z,54.70
2024-02-26T01:53:25.625Z,50.60
2024-02-26T01:53:58.069Z,46.43
2024-02-26T01:54:31.083Z,37.70
2024-02-26T01:55:03.659Z,36.73
2024-02-26T01:55:35.752Z,36.57
2024-02-26T01:56:08.409Z,34.47
2024-02-26T01:56:41.666Z,36.03
2024-02-26T01:57:14.688Z,38.00
2024-02-26T01:57:47.584Z,39.27
2024-02-26T01:58:19.865Z,38.03
2024-02-26T01:58:51.804Z,38.20
2024-02-26T01:59:23.875Z,37.03
2024-02-26T01:59:56.974Z,36.23
2024-02-26T02:00:29.141Z,34.77
2024-02-26T02:01:02.393Z,36.53
2024-02-26T02:01:35.122Z,38.33
2024-02-26T02:02:10.118Z,38.40
2024-02-26T02:02:43.195Z,39.87
2024-02-26T02:03:15.157Z,46.33
2024-02-26T02:03:47.292Z,40.37
2024-02-26T02:04:19.505Z,37.23
2024-02-26T02:04:51.493Z,38.97
2024-02-26T02:05:24.477Z,41.87
2024-02-26T02:05:56.456Z,37.70
2024-02-26T02:06:31.397Z,35.50
2024-02-26T02:07:03.998Z,35.40
2024-02-26T02:07:37.106Z,35.87
2024-02-26T02:08:11.881Z,36.60
2024-02-26T02:08:44.155Z,35.10
2024-02-26T02:09:16.667Z,33.63
2024-02-26T02:09:48.553Z,33.23
2024-02-26T02:10:24.099Z,33.20
2024-02-26T02:10:56.230Z,40.83
2024-02-26T02:11:28.465Z,40.00
2024-02-26T02:12:00.911Z,37.40
2024-02-26T02:12:34.203Z,39.23
2024-02-26T02:13:06.058Z,40.77
2024-02-26T02:13:37.858Z,35.57
2024-02-26T02:14:09.683Z,33.77
2024-02-26T02:14:41.602Z,35.93
2024-02-26T02:15:13.463Z,36.70
2024-02-26T02:15:45.349Z,34.87
2024-02-26T02:16:17.265Z,29.83
2024-02-26T02:16:49.394Z,28.07
2024-02-26T02:17:21.751Z,31.00
2024-02-26T02:17:53.704Z,31.03
2024-02-26T02:18:25.659Z,30.67
2024-02-26T02:18:57.620Z,32.40
2024-02-26T02:19:29.580Z,33.97
2024-02-26T02:20:01.663Z,33.53
2024-02-26T02:20:37.150Z,33.73
2024-02-26T02:21:09.102Z,33.03
2024-02-26T02:21:41.051Z,32.90
2024-02-26T02:22:12.965Z,32.13
2024-02-26T02:22:46.244Z,32.87
2024-02-26T02:23:18.095Z,32.93
2024-02-26T02:23:50.410Z,34.43
2024-02-26T02:24:22.471Z,35.53
2024-02-26T02:24:54.628Z,35.17
2024-02-26T02:25:26.619Z,33.67
2024-02-26T02:25:59.746Z,32.27
2024-02-26T02:26:31.819Z,31.17
2024-02-26T02:27:04.143Z,32.53
2024-02-26T02:27:36.156Z,32.93
2024-02-26T02:28:08.084Z,33.63
2024-02-26T02:28:41.156Z,33.70
2024-02-26T02:29:13.558Z,32.43
2024-02-26T02:29:45.528Z,33.43
2024-02-26T02:30:17.825Z,34.43
2024-02-26T02:30:50.007Z,34.17
2024-02-26T02:31:21.925Z,35.07
2024-02-26T02:31:53.771Z,32.43
2024-02-26T02:32:26.814Z,32.20
2024-02-26T02:33:02.659Z,31.23
2024-02-26T02:33:35.919Z,31.83
2024-02-26T02:34:07.917Z,33.37
2024-02-26T02:34:40.369Z,33.90
2024-02-26T02:35:12.219Z,35.13
2024-02-26T02:35:44.076Z,32.20
2024-02-26T02:36:16.060Z,31.27
2024-02-26T02:36:53.542Z,32.27
2024-02-26T02:37:25.366Z,30.83
2024-02-26T02:37:58.580Z,31.00
2024-02-26T02:38:31.459Z,30.10
2024-02-26T02:39:04.598Z,31.47
2024-02-26T02:39:36.487Z,30.23
2024-02-26T02:40:08.800Z,30.83
2024-02-26T02:40:40.616Z,31.80
2024-02-26T02:41:12.464Z,29.90
2024-02-26T02:41:44.377Z,30.10
2024-02-26T02:42:16.924Z,30.87
2024-02-26T02:42:48.849Z,32.57
2024-02-26T02:43:20.776Z,31.03
2024-02-26T02:43:52.651Z,30.73
2024-02-26T02:44:24.504Z,30.13
2024-02-26T02:44:56.370Z,30.83
2024-02-26T02:45:28.222Z,33.23
2024-02-26T02:46:00.045Z,31.63
2024-02-26T02:46:34.665Z,29.07
2024-02-26T02:47:06.515Z,30.73
2024-02-26T02:47:38.987Z,31.40
2024-02-26T02:48:12.634Z,33.93
2024-02-26T02:48:44.998Z,35.97
2024-02-26T02:49:18.018Z,38.27
2024-02-26T02:49:50.061Z,33.03
2024-02-26T02:50:21.917Z,36.97
2024-02-26T02:50:53.762Z,41.30
2024-02-26T02:51:25.799Z,44.93
2024-02-26T02:51:58.664Z,44.33
2024-02-26T02:52:30.616Z,37.10
2024-02-26T02:53:03.159Z,37.33
2024-02-26T02:53:34.974Z,37.13
2024-02-26T02:54:06.833Z,38.53
2024-02-26T02:54:41.531Z,43.77
2024-02-26T02:55:13.770Z,39.43
2024-02-26T02:55:45.642Z,43.40
2024-02-26T02:56:17.458Z,50.20
2024-02-26T02:56:49.324Z,42.23
2024-02-26T02:57:21.302Z,36.37
2024-02-26T02:57:53.192Z,41.83
2024-02-26T02:58:25.102Z,52.93
2024-02-26T02:58:57.011Z,51.27
2024-02-26T02:59:28.865Z,44.53
2024-02-26T03:00:00.867Z,50.13
2024-02-26T03:00:32.842Z,46.13
2024-02-26T03:01:04.818Z,45.37
2024-02-26T03:01:36.728Z,50.70
2024-02-26T03:02:08.609Z,44.37
2024-02-26T03:02:40.514Z,47.73
2024-02-26T03:03:12.812Z,48.70
2024-02-26T03:03:44.700Z,47.67
2024-02-26T03:04:16.671Z,38.00
2024-02-26T03:04:48.701Z,33.30
2024-02-26T03:05:20.616Z,33.20
2024-02-26T03:05:52.510Z,33.23
2024-02-26T03:06:24.495Z,32.40
2024-02-26T03:06:56.573Z,31.83
2024-02-26T03:07:28.589Z,30.80
2024-02-26T03:08:00.894Z,32.73
2024-02-26T03:08:32.783Z,34.00
2024-02-26T03:09:04.663Z,34.03
2024-02-26T03:09:36.509Z,34.13
2024-02-26T03:10:08.706Z,32.13
2024-02-26T03:10:40.610Z,30.83
2024-02-26T03:11:16.427Z,29.87
2024-02-26T03:11:48.403Z,29.30
2024-02-26T03:12:20.409Z,28.00
2024-02-26T03:12:52.284Z,27.17
2024-02-26T03:13:24.128Z,26.87
2024-02-26T03:13:56.272Z,28.07
2024-02-26T03:14:28.186Z,26.57
2024-02-26T03:15:01.844Z,27.63
2024-02-26T03:15:33.848Z,26.70
2024-02-26T03:16:06.953Z,26.27
2024-02-26T03:16:38.912Z,27.77
2024-02-26T03:17:10.789Z,27.63
2024-02-26T03:17:42.928Z,27.30
2024-02-26T03:18:15.047Z,26.53
2024-02-26T03:18:47.190Z,26.70
2024-02-26T03:19:19.225Z,28.00
2024-02-26T03:19:54.447Z,27.90
2024-02-26T03:20:26.392Z,27.20
2024-02-26T03:20:58.265Z,28.30
2024-02-26T03:21:30.508Z,27.73
2024-02-26T03:22:02.417Z,27.70
2024-02-26T03:22:34.335Z,27.17
2024-02-26T03:23:06.199Z,26.63
2024-02-26T03:23:38.415Z,28.60
2024-02-26T03:24:11.646Z,30.47
2024-02-26T03:24:43.677Z,29.13
2024-02-26T03:25:15.602Z,29.13
2024-02-26T03:25:49.024Z,29.07
2024-02-26T03:26:20.880Z,30.87
2024-02-26T03:26:53.361Z,30.83
2024-02-26T03:27:25.425Z,34.27
2024-02-26T03:27:57.280Z,39.10
2024-02-26T03:28:29.174Z,34.43
2024-02-26T03:29:01.952Z,34.20
2024-02-26T03:29:33.798Z,34.50
2024-02-26T03:30:06.389Z,39.80
2024-02-26T03:30:38.454Z,48.17
2024-02-26T03:31:11.657Z,43.20
2024-02-26T03:31:43.485Z,47.90
2024-02-26T03:32:15.375Z,55.37
2024-02-26T03:32:48.466Z,55.57
2024-02-26T03:33:20.603Z,52.40
2024-02-26T03:33:52.738Z,58.07
2024-02-26T03:34:24.928Z,50.83
2024-02-26T03:34:57.250Z,48.73
2024-02-26T03:35:29.197Z,53.50
2024-02-26T03:36:01.123Z,69.13
2024-02-26T03:36:32.969Z,76.00
2024-02-26T03:37:04.835Z,66.87
2024-02-26T03:37:36.752Z,73.30
2024-02-26T03:38:08.608Z,86.47
2024-02-26T03:38:40.509Z,91.50
2024-02-26T03:39:12.555Z,67.20
2024-02-26T03:39:44.505Z,67.83
2024-02-26T03:40:16.369Z,65.57
2024-02-26T03:40:48.242Z,73.07
2024-02-26T03:41:20.085Z,84.10
2024-02-26T03:41:52.022Z,101.43
2024-02-26T03:42:24.175Z,73.93
2024-02-26T03:42:58.528Z,81.97
2024-02-26T03:43:30.401Z,67.87
2024-02-26T03:44:02.671Z,54.90
2024-02-26T03:44:34.630Z,54.87
2024-02-26T03:45:07.380Z,75.37
2024-02-26T03:45:39.242Z,58.30
2024-02-26T03:46:14.982Z,46.47
2024-02-26T03:46:46.883Z,47.97
2024-02-26T03:47:18.714Z,39.23
2024-02-26T03:47:50.744Z,31.00
2024-02-26T03:48:22.876Z,29.97
2024-02-26T03:48:54.992Z,30.50
2024-02-26T03:49:27.016Z,30.03
2024-02-26T03:50:00.328Z,29.27
2024-02-26T03:50:32.211Z,29.00
2024-02-26T03:51:04.842Z,30.83
2024-02-26T03:51:36.744Z,27.30
2024-02-26T03:52:08.691Z,27.53
2024-02-26T03:52:40.514Z,27.00
2024-02-26T03:53:14.835Z,28.17
2024-02-26T03:53:47.023Z,27.30
2024-02-26T03:54:18.938Z,26.97
2024-02-26T03:54:51.047Z,27.43
2024-02-26T03:55:26.162Z,27.10
2024-02-26T03:55:58.047Z,28.03
2024-02-26T03:56:30.187Z,29.03
2024-02-26T03:57:02.161Z,28.10
2024-02-26T03:57:34.033Z,27.73
2024-02-26T03:58:05.932Z,26.47
2024-02-26T03:58:37.836Z,27.90
2024-02-26T03:59:09.705Z,28.07
2024-02-26T03:59:41.592Z,25.73
2024-02-26T04:00:14.084Z,25.67
2024-02-26T04:00:46.084Z,25.57
2024-02-26T04:01:18.008Z,27.27
2024-02-26T04:01:50.643Z,26.93
2024-02-26T04:02:24.077Z,25.90
2024-02-26T04:02:56.587Z,27.33
2024-02-26T04:03:28.567Z,28.90
2024-02-26T04:04:00.935Z,28.00
2024-02-26T04:04:35.770Z,25.90
2024-02-26T04:05:11.444Z,27.17
2024-02-26T04:05:43.355Z,26.67
2024-02-26T04:06:20.779Z,26.83
2024-02-26T04:06:52.843Z,27.90
2024-02-26T04:07:24.734Z,26.67
2024-02-26T04:07:56.604Z,27.43
2024-02-26T04:08:28.504Z,28.90
2024-02-26T04:09:00.377Z,29.87
2024-02-26T04:09:33.013Z,28.73
2024-02-26T04:10:07.058Z,28.80
2024-02-26T04:10:40.098Z,28.80
2024-02-26T04:11:12.130Z,28.10
2024-02-26T04:11:47.260Z,28.33
2024-02-26T04:12:19.916Z,28.00
2024-02-26T04:12:51.791Z,28.93
2024-02-26T04:13:23.853Z,29.90
2024-02-26T04:13:55.724Z,29.87
2024-02-26T04:14:27.598Z,30.20
2024-02-26T04:14:59.552Z,30.33
2024-02-26T04:15:31.495Z,30.67
2024-02-26T04:16:03.873Z,30.47
2024-02-26T04:16:36.893Z,29.53
2024-02-26T04:17:08.741Z,28.17
2024-02-26T04:17:42.240Z,29.10
2024-02-26T04:18:15.379Z,31.23
2024-02-26T04:18:47.496Z,30.70
2024-02-26T04:19:19.716Z,30.93
2024-02-26T04:19:51.711Z,31.03
2024-02-26T04:20:23.549Z,30.27
2024-02-26T04:20:55.544Z,30.00
2024-02-26T04:21:27.443Z,31.37
2024-02-26T04:21:59.336Z,32.27
2024-02-26T04:22:31.178Z,33.07
2024-02-26T04:23:04.329Z,31.10
2024-02-26T04:23:36.200Z,31.67
2024-02-26T04:24:08.132Z,35.60
2024-02-26T04:24:40.036Z,32.10
2024-02-26T04:25:11.878Z,32.73
2024-02-26T04:25:43.708Z,31.53
2024-02-26T04:26:15.616Z,30.10
2024-02-26T04:26:47.610Z,31.20
2024-02-26T04:27:19.636Z,31.10
2024-02-26T04:27:51.579Z,30.53
2024-02-26T04:28:23.503Z,31.93
2024-02-26T04:28:55.395Z,33.13
2024-02-26T04:29:27.262Z,32.03
2024-02-26T04:29:59.224Z,33.10
2024-02-26T04:30:31.149Z,32.83
2024-02-26T04:31:03.089Z,30.97
2024-02-26T04:31:34.901Z,32.67
2024-02-26T04:32:06.891Z,33.87
2024-02-26T04:32:38.783Z,39.27
2024-02-26T04:33:10.794Z,36.70
2024-02-26T04:33:43.429Z,38.60
2024-02-26T04:34:15.578Z,36.00
2024-02-26T04:34:47.656Z,36.00
2024-02-26T04:35:19.651Z,36.13
2024-02-26T04:35:51.545Z,32.67
2024-02-26T04:36:23.543Z,31.00
2024-02-26T04:36:55.449Z,29.97
2024-02-26T04:37:32.158Z,30.33
2024-02-26T04:38:04.243Z,39.33
2024-02-26T04:38:36.348Z,60.67
2024-02-26T04:39:08.585Z,50.60
2024-02-26T04:39:40.807Z,39.53
2024-02-26T04:40:12.845Z,48.93
2024-02-26T04:40:44.758Z,59.53
2024-02-26T04:41:16.854Z,75.47
2024-02-26T04:41:48.702Z,66.77
2024-02-26T04:42:20.667Z,53.00
2024-02-26T04:42:52.563Z,53.67
2024-02-26T04:43:24.412Z,54.30
2024-02-26T04:43:56.313Z,58.60
2024-02-26T04:44:28.201Z,60.50
2024-02-26T04:45:00.103Z,52.97
2024-02-26T04:45:32.041Z,38.60
2024-02-26T04:46:03.873Z,37.57
2024-02-26T04:46:35.860Z,35.10
2024-02-26T04:47:08.835Z,32.20
2024-02-26T04:47:40.874Z,37.03
2024-02-26T04:48:13.049Z,39.23
2024-02-26T04:48:47.056Z,37.77
2024-02-26T04:49:19.014Z,36.00
2024-02-26T04:49:52.099Z,33.17
2024-02-26T04:50:24.215Z,31.50
2024-02-26T04:50:56.123Z,30.77
2024-02-26T04:51:28.120Z,29.87
2024-02-26T04:51:59.992Z,28.83
2024-02-26T04:52:31.908Z,28.63
2024-02-26T04:53:03.719Z,26.77
2024-02-26T04:53:35.655Z,25.60
2024-02-26T04:54:07.557Z,25.40
2024-02-26T04:54:39.885Z,24.33
2024-02-26T04:55:12.152Z,24.67
2024-02-26T04:55:43.975Z,24.60
2024-02-26T04:56:15.814Z,23.63
2024-02-26T04:56:47.712Z,23.97
2024-02-26T04:57:19.733Z,24.77
2024-02-26T04:57:51.693Z,24.40
2024-02-26T04:58:23.532Z,23.40
2024-02-26T04:58:55.395Z,23.40
2024-02-26T04:59:27.314Z,24.63
2024-02-26T04:59:59.265Z,24.40
2024-02-26T05:00:31.250Z,24.07
2024-02-26T05:01:04.642Z,23.47
2024-02-26T05:01:37.953Z,25.73
2024-02-26T05:02:10.976Z,26.07
2024-02-26T05:02:43.069Z,24.00
2024-02-26T05:03:16.803Z,24.13
2024-02-26T05:03:48.822Z,23.33
2024-02-26T05:04:20.848Z,23.50
2024-02-26T05:04:52.833Z,23.80
2024-02-26T05:05:24.695Z,24.17
2024-02-26T05:05:58.654Z,24.83
2024-02-26T05:06:30.939Z,24.57
2024-02-26T05:07:03.007Z,24.57
2024-02-26T05:07:34.967Z,24.37
2024-02-26T05:08:06.926Z,23.27
2024-02-26T05:08:39.795Z,23.07
2024-02-26T05:09:12.057Z,23.30
2024-02-26T05:09:44.699Z,23.37
2024-02-26T05:10:16.538Z,22.97
2024-02-26T05:10:48.414Z,23.10
2024-02-26T05:11:20.334Z,24.13
2024-02-26T05:11:52.401Z,23.70
2024-02-26T05:12:24.399Z,23.33
2024-02-26T05:12:56.263Z,23.03
2024-02-26T05:13:28.099Z,23.33
2024-02-26T05:14:01.179Z,23.07
2024-02-26T05:14:33.018Z,23.40
2024-02-26T05:15:05.192Z,23.17
2024-02-26T05:15:37.663Z,22.43
2024-02-26T05:16:09.589Z,21.90
2024-02-26T05:16:41.493Z,23.37
2024-02-26T05:17:13.322Z,23.03
2024-02-26T05:17:46.635Z,23.60
2024-02-26T05:18:19.156Z,23.40
2024-02-26T05:18:51.171Z,21.70
2024-02-26T05:19:23.331Z,21.63
2024-02-26T05:19:55.399Z,22.77
2024-02-26T05:20:27.271Z,22.93
2024-02-26T05:20:59.179Z,24.60
2024-02-26T05:21:31.235Z,22.33
2024-02-26T05:22:03.079Z,22.03
2024-02-26T05:22:35.044Z,24.07
2024-02-26T05:23:06.902Z,22.43
2024-02-26T05:23:38.840Z,23.40
2024-02-26T05:24:10.986Z,23.20
2024-02-26T05:24:42.867Z,22.43
2024-02-26T05:25:16.320Z,22.83
2024-02-26T05:25:49.165Z,21.93
2024-02-26T05:26:24.184Z,22.63
2024-02-26T05:26:56.761Z,22.10
2024-02-26T05:27:28.711Z,21.47
2024-02-26T05:28:00.811Z,20.57
2024-02-26T05:28:32.771Z,20.43
2024-02-26T05:29:04.617Z,20.50
2024-02-26T05:29:36.499Z,21.03
2024-02-26T05:30:08.778Z,21.17
2024-02-26T05:30:41.189Z,20.73
2024-02-26T05:31:16.327Z,21.60
2024-02-26T05:31:48.195Z,21.17
2024-02-26T05:32:20.541Z,20.87
2024-02-26T05:32:52.589Z,21.20
2024-02-26T05:33:24.666Z,21.20
2024-02-26T05:33:57.420Z,21.53
2024-02-26T05:34:31.581Z,21.57
2024-02-26T05:35:06.697Z,20.97
2024-02-26T05:35:38.896Z,22.30
2024-02-26T05:36:10.854Z,22.07
2024-02-26T05:36:42.727Z,21.97
2024-02-26T05:37:14.551Z,20.63
2024-02-26T05:37:46.398Z,20.90
2024-02-26T05:38:18.481Z,21.60
2024-02-26T05:38:50.773Z,21.10
2024-02-26T05:39:22.714Z,21.27
2024-02-26T05:39:54.630Z,21.13
2024-02-26T05:40:26.506Z,20.73
2024-02-26T05:41:00.046Z,21.40
2024-02-26T05:41:31.916Z,21.40
2024-02-26T05:42:04.234Z,21.90
2024-02-26T05:42:36.149Z,21.40
2024-02-26T05:43:08.016Z,21.90
2024-02-26T05:43:39.901Z,23.50
2024-02-26T05:44:12.842Z,24.67
2024-02-26T05:44:44.741Z,24.23
2024-02-26T05:45:16.611Z,23.10
2024-02-26T05:45:48.505Z,25.33
2024-02-26T05:46:21.163Z,23.93
2024-02-26T05:46:53.009Z,22.87
2024-02-26T05:47:24.886Z,24.37
2024-02-26T05:47:56.890Z,23.30
2024-02-26T05:48:28.999Z,24.53
2024-02-26T05:49:01.120Z,25.13
2024-02-26T05:49:33.877Z,25.73
2024-02-26T05:50:06.362Z,27.03
2024-02-26T05:50:38.250Z,25.93
2024-02-26T05:51:42.696Z,25.73
2024-02-26T05:52:14.589Z,25.33
2024-02-26T05:52:46.636Z,25.00
2024-02-26T05:53:18.504Z,24.23
2024-02-26T05:53:55.535Z,25.67
2024-02-26T05:54:27.775Z,26.50
2024-02-26T05:54:59.605Z,32.07
2024-02-26T05:55:31.542Z,30.33
2024-02-26T05:56:03.413Z,29.23
2024-02-26T05:56:35.239Z,29.57
2024-02-26T05:57:07.146Z,29.53
2024-02-26T05:57:39.426Z,31.73
2024-02-26T05:58:11.313Z,32.07
2024-02-26T05:58:43.271Z,28.33
2024-02-26T05:59:16.550Z,25.70
2024-02-26T05:59:48.926Z,25.10
2024-02-26T06:00:20.888Z,25.67
2024-02-26T06:00:52.814Z,29.30
2024-02-26T06:01:25.736Z,29.33
2024-02-26T06:01:57.594Z,30.83
2024-02-26T06:02:29.464Z,30.00
2024-02-26T06:03:01.382Z,26.67
2024-02-26T06:03:33.822Z,25.57
2024-02-26T06:04:05.912Z,25.17
2024-02-26T06:04:37.818Z,25.57
2024-02-26T06:05:10.213Z,23.47
2024-02-26T06:05:42.402Z,24.07
2024-02-26T06:06:16.479Z,24.30
2024-02-26T06:06:48.758Z,24.63
2024-02-26T06:07:20.713Z,23.57
2024-02-26T06:07:52.970Z,23.57
2024-02-26T06:08:24.806Z,25.07
2024-02-26T06:08:56.685Z,24.03
2024-02-26T06:09:28.647Z,25.00
2024-02-26T06:10:00.628Z,26.10
2024-02-26T06:10:32.504Z,24.70
2024-02-26T06:11:10.605Z,25.00
2024-02-26T06:11:42.648Z,24.27
2024-02-26T06:12:14.697Z,28.00
2024-02-26T06:12:46.644Z,25.33
2024-02-26T06:13:18.447Z,24.97
2024-02-26T06:13:50.310Z,23.53
2024-02-26T06:14:22.184Z,24.63
2024-02-26T06:14:54.131Z,24.60
2024-02-26T06:15:26.063Z,24.87
2024-02-26T06:15:58.181Z,24.83
2024-02-26T06:16:30.109Z,24.93
2024-02-26T06:17:02.022Z,24.37
2024-02-26T06:17:34.759Z,24.70
2024-02-26T06:18:06.744Z,24.80
2024-02-26T06:18:38.847Z,24.93
2024-02-26T06:19:13.734Z,24.97
2024-02-26T06:19:46.171Z,24.27
2024-02-26T06:20:18.172Z,24.13
2024-02-26T06:20:50.242Z,23.73
2024-02-26T06:21:22.171Z,23.60
2024-02-26T06:21:54.055Z,23.33
2024-02-26T06:22:25.925Z,24.07
2024-02-26T06:22:57.731Z,23.83
2024-02-26T06:23:30.050Z,23.77
2024-02-26T06:24:02.638Z,24.87
2024-02-26T06:24:34.544Z,25.07
2024-02-26T06:25:06.565Z,24.17
2024-02-26T06:25:38.496Z,24.43
2024-02-26T06:26:11.471Z,24.17
2024-02-26T06:26:43.431Z,23.80
2024-02-26T06:27:15.334Z,23.70
2024-02-26T06:27:47.207Z,24.10
2024-02-26T06:28:19.451Z,24.73
2024-02-26T06:28:53.597Z,23.87
2024-02-26T06:29:25.578Z,23.20
2024-02-26T06:29:58.151Z,23.80
2024-02-26T06:30:30.150Z,23.93
2024-02-26T06:31:02.226Z,23.20
2024-02-26T06:31:34.092Z,22.23
2024-02-26T06:32:06.064Z,22.80
2024-02-26T06:32:38.681Z,22.60
2024-02-26T06:33:12.126Z,22.73
2024-02-26T06:33:44.389Z,22.90
2024-02-26T06:34:16.499Z,23.40
2024-02-26T06:34:48.574Z,23.10
2024-02-26T06:35:20.711Z,22.33
2024-02-26T06:35:52.609Z,22.00
2024-02-26T06:36:24.764Z,21.83
2024-02-26T06:36:56.632Z,21.57
2024-02-26T06:37:28.519Z,21.77
2024-02-26T06:38:00.464Z,21.00
2024-02-26T06:38:32.446Z,21.90
2024-02-26T06:39:04.458Z,21.30
2024-02-26T06:39:36.352Z,19.93
2024-02-26T06:40:08.672Z,21.40
2024-02-26T06:40:40.984Z,20.87
2024-02-26T06:41:12.859Z,21.20
2024-02-26T06:41:44.817Z,19.50
2024-02-26T06:42:17.701Z,20.40
2024-02-26T06:42:51.450Z,21.33
2024-02-26T06:43:23.367Z,22.20
2024-02-26T06:43:55.678Z,20.43
2024-02-26T06:44:32.921Z,19.70
2024-02-26T06:45:05.884Z,19.60
2024-02-26T06:45:37.867Z,19.57
2024-02-26T06:46:09.777Z,20.20
2024-02-26T06:46:41.598Z,19.70
2024-02-26T06:47:13.619Z,20.07
2024-02-26T06:47:45.704Z,20.13
2024-02-26T06:48:17.813Z,20.40
2024-02-26T06:48:53.133Z,20.60
2024-02-26T06:49:27.355Z,19.90
2024-02-26T06:49:59.652Z,19.83
2024-02-26T06:50:31.642Z,19.77
2024-02-26T06:51:03.783Z,20.23
2024-02-26T06:51:35.723Z,20.57
2024-02-26T06:52:07.801Z,19.17
2024-02-26T06:52:39.707Z,19.50
2024-02-26T06:53:11.567Z,19.67
2024-02-26T06:53:43.424Z,19.30
2024-02-26T06:54:15.334Z,19.27
2024-02-26T06:54:49.298Z,19.00
2024-02-26T06:55:21.169Z,18.60
2024-02-26T06:55:52.988Z,19.27
2024-02-26T06:56:24.869Z,19.50